Time;durP1;ratioP1;P1;durP2;ratioP2;P2;SDS_P1;SDS_P2;PMS_P1;PMS_P2;Temp;Humidity;BMP_temperature;BMP_pressure;BME280_temperature;BME280_humidity;BME280_pressure;Samples;Min_cycle;Max_cycle;Signal;HPM_P1;HPM_P2
2023/09/02 00:01:30;;;;;;;497.20;481.30;;;;;;;;;;5004474;28;20310;-92
2023/09/02 00:04:04;;;;;;;498.80;483.13;;;;;;;;;;5007472;28;20208;-93
2023/09/02 00:06:33;;;;;;;475.35;460.65;;;;;;;;;;5022173;28;20195;-93
2023/09/02 00:09:07;;;;;;;488.50;473.10;;;;;;;;;;5022551;28;20184;-93
2023/09/02 00:11:33;;;;;;;493.05;477.38;;;;;;;;;;5023761;28;20196;-92
2023/09/02 00:14:02;;;;;;;515.15;498.50;;;;;;;;;;5005197;28;20224;-93
2023/09/02 00:16:34;;;;;;;525.53;508.05;;;;;;;;;;5032525;28;20195;-92
2023/09/02 00:19:04;;;;;;;530.92;513.60;;;;;;;;;;5005174;28;20182;-91
2023/09/02 00:21:30;;;;;;;546.58;528.40;;;;;;;;;;5004101;28;20248;-92
2023/09/02 00:24:10;;;;;;;532.00;514.80;;;;;;;;;;5023828;28;20257;-92
2023/09/02 00:26:36;;;;;;;536.22;518.55;;;;;;;;;;5003954;28;20193;-92
2023/09/02 00:29:05;;;;;;;530.28;512.92;;;;;;;;;;5024045;28;20701;-93
2023/09/02 00:31:34;;;;;;;492.85;477.30;;;;;;;;;;5015895;28;20228;-93
2023/09/02 00:34:02;;;;;;;492.55;477.05;;;;;;;;;;5026481;28;20258;-93
2023/09/02 00:36:41;;;;;;;491.60;476.05;;;;;;;;;;5027144;28;20227;-91
2023/09/02 00:39:10;;;;;;;474.85;459.92;;;;;;;;;;5015359;28;20208;-93
2023/09/02 00:41:43;;;;;;;472.15;457.40;;;;;;;;;;5007621;28;20251;-94
2023/09/02 00:44:18;;;;;;;482.85;467.50;;;;;;;;;;4992202;28;20216;-93
2023/09/02 00:46:48;;;;;;;484.50;469.33;;;;;;;;;;5004121;28;20269;-93
2023/09/02 00:49:14;;;;;;;487.23;471.83;;;;;;;;;;5004740;28;20181;-91
2023/09/02 00:51:50;;;;;;;490.50;475.00;;;;;;;;;;5006874;28;20239;-93
2023/09/02 00:54:22;;;;;;;452.10;437.73;;;;;;;;;;5006414;28;20221;-92
2023/09/02 00:56:48;;;;;;;446.83;433.00;;;;;;;;;;5006269;28;20823;-92
2023/09/02 00:59:30;;;;;;;463.38;449.15;;;;;;;;;;5011154;28;20192;-92
2023/09/02 01:01:56;;;;;;;455.15;441.23;;;;;;;;;;5024080;28;20239;-92
2023/09/02 01:04:31;;;;;;;474.65;459.90;;;;;;;;;;5024120;28;20207;-93
2023/09/02 01:07:05;;;;;;;484.38;469.27;;;;;;;;;;5022571;28;20247;-94
2023/09/02 01:09:35;;;;;;;483.80;468.85;;;;;;;;;;5029809;28;20191;-95
2023/09/02 01:12:02;;;;;;;482.35;467.40;;;;;;;;;;5044859;28;20184;-93
2023/09/02 01:14:49;;;;;;;494.05;478.40;;;;;;;;;;5042624;28;20275;-94
2023/09/02 01:17:27;;;;;;;488.15;472.65;;;;;;;;;;5009408;28;20188;-92
2023/09/02 01:20:00;;;;;;;481.67;466.35;;;;;;;;;;5004437;28;20188;-93
2023/09/02 01:22:38;;;;;;;497.67;481.67;;;;;;;;;;5013564;28;20610;-93
2023/09/02 01:25:15;;;;;;;494.88;479.00;;;;;;;;;;5019215;28;20268;-92
2023/09/02 01:28:08;;;;;;;499.42;483.40;;;;;;;;;;5002688;28;20194;-92
2023/09/02 01:30:38;;;;;;;470.38;455.42;;;;;;;;;;4981224;28;20267;-91
2023/09/02 01:33:09;;;;;;;498.45;482.60;;;;;;;;;;5002520;28;20205;-94
2023/09/02 01:35:38;;;;;;;502.63;486.88;;;;;;;;;;5005284;28;20193;-93
2023/09/02 01:38:08;;;;;;;501.65;485.27;;;;;;;;;;5002213;28;20307;-92
2023/09/02 01:40:41;;;;;;;507.58;491.23;;;;;;;;;;5002480;28;20217;-93
2023/09/02 01:43:07;;;;;;;502.33;486.17;;;;;;;;;;5003574;28;20252;-93
2023/09/02 01:45:39;;;;;;;499.50;483.42;;;;;;;;;;5002024;28;20223;-92
2023/09/02 01:48:11;;;;;;;485.55;470.08;;;;;;;;;;5018587;28;20242;-93
2023/09/02 01:50:42;;;;;;;461.00;446.73;;;;;;;;;;5021371;28;20442;-92
2023/09/02 01:53:14;;;;;;;459.63;444.95;;;;;;;;;;5022556;28;20223;-93
2023/09/02 01:55:43;;;;;;;459.63;445.35;;;;;;;;;;5021471;28;20302;-92
2023/09/02 01:58:18;;;;;;;461.15;447.00;;;;;;;;;;5022935;28;20183;-92
2023/09/02 02:00:47;;;;;;;462.30;448.07;;;;;;;;;;5021527;28;20199;-94
2023/09/02 02:03:21;;;;;;;461.58;447.35;;;;;;;;;;5022300;28;20541;-92
2023/09/02 02:05:55;;;;;;;447.43;433.70;;;;;;;;;;5021944;28;20224;-95
2023/09/02 02:08:43;;;;;;;442.42;428.98;;;;;;;;;;5022198;28;20202;-92
2023/09/02 02:11:09;;;;;;;443.95;429.20;;;;;;;;;;5020663;28;20830;-92
2023/09/02 02:13:38;;;;;;;453.95;439.25;;;;;;;;;;5019026;28;20243;-91
2023/09/02 02:16:12;;;;;;;438.77;424.52;;;;;;;;;;5021724;28;20201;-93
2023/09/02 02:18:38;;;;;;;449.60;434.77;;;;;;;;;;5042565;22;20195;-93
2023/09/02 02:21:05;;;;;;;477.80;462.60;;;;;;;;;;5048186;28;20318;-95
2023/09/02 02:23:31;;;;;;;476.35;461.05;;;;;;;;;;5049379;28;20179;-96
2023/09/02 02:26:01;;;;;;;470.40;455.65;;;;;;;;;;5048741;28;20183;-94
2023/09/02 02:28:28;;;;;;;460.55;446.17;;;;;;;;;;5049400;28;20190;-95
2023/09/02 02:30:54;;;;;;;464.48;450.02;;;;;;;;;;5049009;28;20195;-95
2023/09/02 02:33:20;;;;;;;455.02;440.73;;;;;;;;;;5048837;28;20272;-96
2023/09/02 02:35:46;;;;;;;476.88;462.00;;;;;;;;;;5049204;28;20266;-96
2023/09/02 02:38:12;;;;;;;481.42;466.50;;;;;;;;;;5051373;28;20172;-96
2023/09/02 02:40:38;;;;;;;485.05;469.63;;;;;;;;;;5049588;28;20238;-94
2023/09/02 02:43:05;;;;;;;469.13;454.38;;;;;;;;;;5049707;28;20180;-94
2023/09/02 02:45:31;;;;;;;471.92;457.20;;;;;;;;;;5052600;28;20266;-94
2023/09/02 02:47:57;;;;;;;457.63;443.00;;;;;;;;;;5052448;28;20205;-94
2023/09/02 02:50:23;;;;;;;446.93;433.20;;;;;;;;;;5052344;28;20229;-95
2023/09/02 02:52:52;;;;;;;459.03;444.73;;;;;;;;;;5051645;28;20269;-96
2023/09/02 02:55:19;;;;;;;449.70;435.83;;;;;;;;;;5053766;28;20183;-95
2023/09/02 02:57:45;;;;;;;447.38;433.73;;;;;;;;;;5053758;28;20249;-95
2023/09/02 03:00:11;;;;;;;448.15;434.10;;;;;;;;;;5050224;28;20204;-95
2023/09/02 03:02:38;;;;;;;435.83;422.57;;;;;;;;;;5051062;28;20201;-95
2023/09/02 03:05:04;;;;;;;437.30;423.87;;;;;;;;;;5050780;28;20182;-92
2023/09/02 03:07:30;;;;;;;440.20;426.20;;;;;;;;;;5051206;28;20331;-92
2023/09/02 03:09:56;;;;;;;444.87;431.13;;;;;;;;;;5030950;28;20574;-95
2023/09/02 03:12:22;;;;;;;430.90;417.87;;;;;;;;;;5017330;28;20192;-95
2023/09/02 03:14:49;;;;;;;429.47;416.40;;;;;;;;;;5016420;28;20673;-94
2023/09/02 03:17:20;;;;;;;419.53;406.93;;;;;;;;;;5014778;28;20544;-93
2023/09/02 03:19:47;;;;;;;395.67;383.77;;;;;;;;;;5012452;28;20274;-95
2023/09/02 03:22:13;;;;;;;404.03;391.40;;;;;;;;;;5013809;28;20183;-95
2023/09/02 03:24:41;;;;;;;423.63;410.73;;;;;;;;;;5014141;28;20237;-95
2023/09/02 03:27:07;;;;;;;419.90;406.57;;;;;;;;;;5017289;28;20179;-96
2023/09/02 03:29:33;;;;;;;420.48;407.42;;;;;;;;;;5013849;28;20234;-95
2023/09/02 03:32:00;;;;;;;428.13;414.93;;;;;;;;;;5014280;28;20603;-94
2023/09/02 03:34:26;;;;;;;441.48;428.13;;;;;;;;;;5014836;28;20215;-95
2023/09/02 03:36:52;;;;;;;422.63;409.80;;;;;;;;;;5031769;28;20186;-94
2023/09/02 03:39:21;;;;;;;439.80;426.27;;;;;;;;;;5014386;28;20207;-95
2023/09/02 03:41:47;;;;;;;446.53;432.73;;;;;;;;;;5042896;28;20527;-94
2023/09/02 03:44:14;;;;;;;434.15;420.52;;;;;;;;;;5035975;28;20264;-94
2023/09/02 03:46:40;;;;;;;436.23;422.83;;;;;;;;;;5026061;28;20186;-94
2023/09/02 03:49:06;;;;;;;448.88;435.08;;;;;;;;;;5046289;28;20213;-94
2023/09/02 03:51:32;;;;;;;442.10;428.50;;;;;;;;;;5047378;28;20252;-94
2023/09/02 03:53:58;;;;;;;450.38;436.30;;;;;;;;;;5032514;28;20209;-95
2023/09/02 03:56:24;;;;;;;440.83;427.27;;;;;;;;;;5045749;28;20190;-94
2023/09/02 03:58:50;;;;;;;447.40;433.42;;;;;;;;;;5045261;28;20237;-94
2023/09/02 04:01:17;;;;;;;443.27;429.48;;;;;;;;;;5047776;28;20184;-96
2023/09/02 04:03:43;;;;;;;458.80;444.52;;;;;;;;;;5048995;28;20428;-96
2023/09/02 04:06:09;;;;;;;462.30;447.80;;;;;;;;;;5050425;28;20179;-93
2023/09/02 04:08:37;;;;;;;446.45;432.77;;;;;;;;;;5050557;28;20185;-94
2023/09/02 04:11:04;;;;;;;439.27;425.75;;;;;;;;;;5049144;28;20224;-95
2023/09/02 04:13:30;;;;;;;450.80;436.90;;;;;;;;;;5048538;28;20195;-94
2023/09/02 04:15:57;;;;;;;449.02;435.02;;;;;;;;;;5050091;28;20199;-94
2023/09/02 04:18:24;;;;;;;446.05;432.10;;;;;;;;;;5050828;28;20184;-95
2023/09/02 04:20:50;;;;;;;449.95;436.15;;;;;;;;;;5049852;28;20223;-94
2023/09/02 04:23:21;;;;;;;447.75;433.95;;;;;;;;;;5050067;28;20269;-94
2023/09/02 04:25:51;;;;;;;448.67;434.67;;;;;;;;;;5049495;28;20213;-95
2023/09/02 04:28:18;;;;;;;441.73;427.90;;;;;;;;;;5050524;28;20255;-94
2023/09/02 04:30:48;;;;;;;447.13;433.13;;;;;;;;;;5050304;28;20203;-95
2023/09/02 04:33:14;;;;;;;438.40;424.80;;;;;;;;;;5051237;28;20194;-94
2023/09/02 04:35:42;;;;;;;426.73;413.80;;;;;;;;;;5050002;28;20229;-94
2023/09/02 04:38:08;;;;;;;441.03;427.30;;;;;;;;;;5050477;28;20193;-96
2023/09/02 04:40:43;;;;;;;426.80;413.83;;;;;;;;;;5050840;28;20202;-94
2023/09/02 04:43:10;;;;;;;419.23;406.43;;;;;;;;;;5048669;28;20248;-94
2023/09/02 04:45:40;;;;;;;421.60;408.77;;;;;;;;;;5048929;28;20199;-95
2023/09/02 04:48:10;;;;;;;429.43;416.40;;;;;;;;;;5050881;28;20200;-94
2023/09/02 04:50:39;;;;;;;421.70;408.87;;;;;;;;;;5048949;28;20215;-94
2023/09/02 04:53:07;;;;;;;421.73;408.97;;;;;;;;;;5049285;28;20204;-94
2023/09/02 04:55:33;;;;;;;429.57;416.70;;;;;;;;;;5049010;28;20203;-95
2023/09/02 04:57:59;;;;;;;433.30;419.93;;;;;;;;;;5049763;28;20595;-94
2023/09/02 05:00:26;;;;;;;437.37;423.83;;;;;;;;;;5048462;28;20214;-94
2023/09/02 05:02:53;;;;;;;432.73;419.50;;;;;;;;;;5049883;28;20187;-95
2023/09/02 05:05:20;;;;;;;426.83;413.57;;;;;;;;;;5047255;28;20201;-94
2023/09/02 05:07:46;;;;;;;426.43;413.00;;;;;;;;;;5048414;28;20197;-94
2023/09/02 05:10:13;;;;;;;414.97;402.20;;;;;;;;;;5054281;28;20207;-94
2023/09/02 05:12:39;;;;;;;418.83;406.07;;;;;;;;;;5047783;28;20177;-94
2023/09/02 05:15:05;;;;;;;432.70;419.10;;;;;;;;;;5046480;28;20172;-94
2023/09/02 05:17:32;;;;;;;411.70;398.80;;;;;;;;;;5044717;28;20695;-94
2023/09/02 05:20:03;;;;;;;393.50;381.83;;;;;;;;;;5044734;28;20223;-95
2023/09/02 05:22:29;;;;;;;403.03;391.03;;;;;;;;;;5046349;28;20185;-94
2023/09/02 05:24:55;;;;;;;398.13;386.20;;;;;;;;;;5026604;28;20219;-94
2023/09/02 05:27:24;;;;;;;403.93;391.67;;;;;;;;;;5033911;28;20204;-95
2023/09/02 05:29:50;;;;;;;405.67;392.93;;;;;;;;;;5029729;28;20200;-95
2023/09/02 05:32:17;;;;;;;410.90;397.93;;;;;;;;;;5040137;28;20219;-94
2023/09/02 05:34:43;;;;;;;403.07;390.23;;;;;;;;;;5047690;28;20455;-94
2023/09/02 05:37:09;;;;;;;405.70;393.27;;;;;;;;;;5048853;28;20182;-95
2023/09/02 05:39:35;;;;;;;408.43;395.53;;;;;;;;;;5048425;28;20210;-94
2023/09/02 05:42:02;;;;;;;397.10;384.57;;;;;;;;;;5047369;28;20176;-93
2023/09/02 05:44:28;;;;;;;388.20;376.47;;;;;;;;;;5048278;28;20207;-95
2023/09/02 05:46:54;;;;;;;398.57;386.57;;;;;;;;;;5033376;28;20667;-94
2023/09/02 05:49:21;;;;;;;408.63;395.47;;;;;;;;;;5011819;28;20201;-95
2023/09/02 05:51:49;;;;;;;407.93;395.87;;;;;;;;;;5030100;28;20183;-95
2023/09/02 05:54:16;;;;;;;397.83;385.73;;;;;;;;;;5026659;28;20271;-94
2023/09/02 05:56:42;;;;;;;407.47;395.00;;;;;;;;;;5010148;28;20191;-93
2023/09/02 05:59:08;;;;;;;408.27;395.87;;;;;;;;;;5018267;28;20184;-94
2023/09/02 06:01:34;;;;;;;395.40;383.50;;;;;;;;;;5050744;28;20183;-94
2023/09/02 06:04:00;;;;;;;427.50;414.23;;;;;;;;;;5055623;28;20191;-94
2023/09/02 06:06:27;;;;;;;415.70;403.23;;;;;;;;;;5057664;28;20170;-96
2023/09/02 06:08:53;;;;;;;434.43;421.10;;;;;;;;;;5053759;28;20250;-93
2023/09/02 06:11:19;;;;;;;434.47;421.07;;;;;;;;;;5047348;28;20184;-93
2023/09/02 06:13:51;;;;;;;447.67;433.93;;;;;;;;;;5047632;28;20645;-94
2023/09/02 06:16:21;;;;;;;442.17;428.10;;;;;;;;;;5048143;28;20261;-93
2023/09/02 06:18:47;;;;;;;440.03;426.53;;;;;;;;;;5050149;28;20193;-93
2023/09/02 06:21:13;;;;;;;435.65;422.10;;;;;;;;;;5052973;28;20284;-94
2023/09/02 06:23:44;;;;;;;447.60;433.77;;;;;;;;;;5051463;28;20187;-94
2023/09/02 06:26:11;;;;;;;440.90;427.17;;;;;;;;;;5053591;28;20188;-93
2023/09/02 06:28:37;;;;;;;474.60;459.85;;;;;;;;;;5051826;28;20248;-93
2023/09/02 06:31:10;;;;;;;454.00;439.80;;;;;;;;;;5049637;28;20215;-94
2023/09/02 06:33:39;;;;;;;460.63;446.15;;;;;;;;;;5051051;28;20209;-93
2023/09/02 06:36:10;;;;;;;511.35;494.77;;;;;;;;;;5052473;28;20181;-96
2023/09/02 06:38:36;;;;;;;507.75;491.35;;;;;;;;;;5057635;28;20186;-94
2023/09/02 06:41:08;;;;;;;523.38;506.13;;;;;;;;;;5054953;28;20265;-92
2023/09/02 06:43:34;;;;;;;530.55;513.00;;;;;;;;;;5056322;28;20159;-93
2023/09/02 06:46:08;;;;;;;528.90;511.58;;;;;;;;;;5054601;28;20207;-91
2023/09/02 06:48:34;;;;;;;472.67;457.83;;;;;;;;;;5042650;28;20188;-90
2023/09/02 06:51:13;;;;;;;430.05;417.08;;;;;;;;;;5043258;28;20708;-91
2023/09/02 06:53:39;;;;;;;472.83;458.02;;;;;;;;;;5042293;28;20230;-93
2023/09/02 06:56:09;;;;;;;472.95;458.25;;;;;;;;;;5039640;28;20179;-95
2023/09/02 06:58:36;;;;;;;493.73;478.23;;;;;;;;;;5045002;28;20421;-93
2023/09/02 07:01:02;;;;;;;504.58;488.55;;;;;;;;;;5031580;28;20200;-94
2023/09/02 07:03:28;;;;;;;501.63;485.60;;;;;;;;;;5041230;28;20201;-94
2023/09/02 07:05:57;;;;;;;482.05;465.45;;;;;;;;;;5039815;28;20279;-92
2023/09/02 07:08:23;;;;;;;485.88;470.77;;;;;;;;;;5028308;28;20363;-92
2023/09/02 07:10:49;;;;;;;515.08;498.30;;;;;;;;;;5044347;28;20204;-93
2023/09/02 07:13:15;;;;;;;522.05;505.13;;;;;;;;;;5041710;28;20218;-94
2023/09/02 07:15:41;;;;;;;505.58;489.50;;;;;;;;;;5049991;28;20180;-95
2023/09/02 07:18:07;;;;;;;495.35;479.75;;;;;;;;;;5049451;28;20177;-93
2023/09/02 07:20:36;;;;;;;524.92;507.83;;;;;;;;;;5051359;28;20237;-96
2023/09/02 07:23:02;;;;;;;504.08;488.35;;;;;;;;;;5058162;28;20169;-95
2023/09/02 07:25:31;;;;;;;532.88;515.33;;;;;;;;;;5052956;28;20169;-94
2023/09/02 07:27:57;;;;;;;547.70;529.95;;;;;;;;;;5021608;28;20170;-93
2023/09/02 07:30:23;;;;;;;507.50;491.27;;;;;;;;;;5052708;28;20207;-92
2023/09/02 07:32:49;;;;;;;508.75;492.70;;;;;;;;;;5058350;28;20293;-93
2023/09/02 07:35:15;;;;;;;497.42;481.75;;;;;;;;;;5052505;28;20186;-92
2023/09/02 07:37:41;;;;;;;510.58;494.35;;;;;;;;;;5039275;28;20226;-91
2023/09/02 07:40:08;;;;;;;513.67;497.27;;;;;;;;;;5034086;28;20228;-91
2023/09/02 07:42:34;;;;;;;526.20;509.50;;;;;;;;;;5022613;28;20654;-93
2023/09/02 07:45:00;;;;;;;548.13;530.13;;;;;;;;;;5049281;28;20188;-95
2023/09/02 07:47:26;;;;;;;544.05;526.47;;;;;;;;;;5038423;28;20158;-93
2023/09/02 07:49:54;;;;;;;569.88;550.70;;;;;;;;;;5034644;28;20211;-91
2023/09/02 07:52:20;;;;;;;561.92;543.08;;;;;;;;;;5028733;28;20244;-92
2023/09/02 07:54:46;;;;;;;556.70;538.47;;;;;;;;;;5014901;28;20268;-93
2023/09/02 07:57:11;;;;;;;568.78;549.53;;;;;;;;;;5046689;28;20190;-93
2023/09/02 07:59:37;;;;;;;589.42;569.33;;;;;;;;;;5046961;28;20201;-92
2023/09/02 08:02:04;;;;;;;577.47;558.17;;;;;;;;;;5046400;28;20228;-91
2023/09/02 08:04:30;;;;;;;592.65;572.38;;;;;;;;;;5041310;28;20181;-94
2023/09/02 08:06:56;;;;;;;564.38;545.72;;;;;;;;;;5041737;28;20192;-90
2023/09/02 08:09:22;;;;;;;536.20;518.80;;;;;;;;;;5045215;28;20211;-93
2023/09/02 08:11:48;;;;;;;524.38;507.40;;;;;;;;;;5044260;28;20211;-89
2023/09/02 08:14:13;;;;;;;528.15;511.25;;;;;;;;;;5048145;28;20208;-93
2023/09/02 08:16:40;;;;;;;526.65;509.75;;;;;;;;;;5052049;28;20178;-93
2023/09/02 08:19:06;;;;;;;536.53;519.28;;;;;;;;;;5049475;28;20208;-92
2023/09/02 08:21:32;;;;;;;546.40;528.55;;;;;;;;;;5035110;28;20264;-92
2023/09/02 08:23:58;;;;;;;550.22;531.90;;;;;;;;;;5023920;28;20182;-92
2023/09/02 08:26:24;;;;;;;548.88;530.50;;;;;;;;;;5031881;28;20193;-95
2023/09/02 08:28:51;;;;;;;549.83;531.78;;;;;;;;;;5043210;28;20196;-91
2023/09/02 08:31:20;;;;;;;531.25;514.15;;;;;;;;;;5043067;28;20226;-91
2023/09/02 08:33:46;;;;;;;531.97;514.63;;;;;;;;;;5039835;28;20382;-93
2023/09/02 08:36:16;;;;;;;534.97;517.40;;;;;;;;;;5042800;28;20173;-91
2023/09/02 08:38:42;;;;;;;561.05;542.28;;;;;;;;;;5041623;28;20244;-91
2023/09/02 08:41:09;;;;;;;522.08;505.25;;;;;;;;;;5040716;28;20201;-91
2023/09/02 08:43:35;;;;;;;514.25;497.80;;;;;;;;;;5041800;28;20185;-94
2023/09/02 08:46:03;;;;;;;460.38;445.85;;;;;;;;;;5024471;28;20185;-94
2023/09/02 08:48:32;;;;;;;472.90;458.05;;;;;;;;;;5024884;28;20181;-90
2023/09/02 08:50:58;;;;;;;523.00;505.75;;;;;;;;;;5044378;28;20282;-93
2023/09/02 08:53:25;;;;;;;532.83;515.20;;;;;;;;;;5044260;28;20204;-92
2023/09/02 08:55:52;;;;;;;516.00;499.25;;;;;;;;;;5042169;28;20550;-91
2023/09/02 08:58:18;;;;;;;580.72;561.05;;;;;;;;;;5033864;28;20188;-92
2023/09/02 09:00:45;;;;;;;559.85;540.67;;;;;;;;;;5022384;28;20212;-92
2023/09/02 09:03:11;;;;;;;537.88;520.20;;;;;;;;;;5024096;28;20360;-93
2023/09/02 09:05:39;;;;;;;428.50;415.55;;;;;;;;;;5034867;28;20256;-91
2023/09/02 09:08:06;;;;;;;503.25;487.15;;;;;;;;;;5041782;28;20177;-91
2023/09/02 09:10:36;;;;;;;478.90;464.30;;;;;;;;;;5041547;28;20204;-91
2023/09/02 09:13:04;;;;;;;495.27;479.58;;;;;;;;;;5034117;28;20822;-92
2023/09/02 09:15:31;;;;;;;580.67;560.78;;;;;;;;;;5041727;28;20658;-90
2023/09/02 09:17:57;;;;;;;658.10;634.33;;;;;;;;;;5027281;28;20189;-91
2023/09/02 09:20:23;;;;;;;586.63;566.90;;;;;;;;;;5024397;28;20224;-90
2023/09/02 09:22:50;;;;;;;628.22;605.50;;;;;;;;;;5008438;28;20173;-91
2023/09/02 09:25:17;;;;;;;629.25;607.38;;;;;;;;;;5007205;28;20222;-89
2023/09/02 09:27:43;;;;;;;662.95;638.97;;;;;;;;;;5024473;28;20166;-90
2023/09/02 09:30:30;;;;;;;691.35;665.00;;;;;;;;;;5024660;28;20245;-91
2023/09/02 09:33:01;;;;;;;681.33;656.53;;;;;;;;;;5007170;28;20216;-89
2023/09/02 09:35:27;;;;;;;687.60;662.38;;;;;;;;;;5025083;28;20181;-91
2023/09/02 09:37:53;;;;;;;684.63;659.50;;;;;;;;;;5007714;28;20185;-92
2023/09/02 09:40:33;;;;;;;683.20;658.13;;;;;;;;;;5028085;28;20220;-93
2023/09/02 09:43:00;;;;;;;679.05;654.17;;;;;;;;;;5027321;28;20213;-91
2023/09/02 09:45:26;;;;;;;726.88;698.72;;;;;;;;;;5009945;28;20181;-90
2023/09/02 09:47:52;;;;;;;758.80;727.58;;;;;;;;;;5036169;28;20195;-90
2023/09/02 09:50:18;;;;;;;767.50;736.35;;;;;;;;;;5044597;28;20207;-94
2023/09/02 09:53:11;;;;;;;787.70;754.97;;;;;;;;;;5044670;28;20177;-91
2023/09/02 09:55:37;;;;;;;780.55;748.55;;;;;;;;;;5039625;28;20575;-92
2023/09/02 09:58:05;;;;;;;768.83;737.75;;;;;;;;;;5045792;28;20180;-93
2023/09/02 10:00:31;;;;;;;818.15;783.28;;;;;;;;;;5055347;28;20193;-94
2023/09/02 10:02:58;;;;;;;796.63;763.50;;;;;;;;;;5038652;28;20189;-93
2023/09/02 10:05:28;;;;;;;799.15;765.03;;;;;;;;;;5039727;28;20189;-91
2023/09/02 10:08:04;;;;;;;797.45;763.55;;;;;;;;;;5045572;28;20181;-93
2023/09/02 10:10:35;;;;;;;765.63;734.40;;;;;;;;;;5062192;28;20199;-91
2023/09/02 10:13:01;;;;;;;747.10;717.70;;;;;;;;;;5065296;28;20696;-90
2023/09/02 10:15:28;;;;;;;727.45;699.83;;;;;;;;;;5062573;28;20173;-90
2023/09/02 10:18:01;;;;;;;707.15;680.92;;;;;;;;;;5054080;28;20183;-92
2023/09/02 10:20:31;;;;;;;1999.90;999.90;;;;;;;;;;5041239;28;20222;-90
2023/09/02 10:23:03;;;;;;;1999.90;999.90;;;;;;;;;;5044341;28;20220;-92
2023/09/02 10:25:34;;;;;;;1999.90;999.90;;;;;;;;;;5044152;28;20256;-92
2023/09/02 10:28:04;;;;;;;1999.90;999.90;;;;;;;;;;5043698;28;20180;-94
2023/09/02 10:30:42;;;;;;;1999.90;999.90;;;;;;;;;;5044422;28;20280;-93
2023/09/02 10:33:14;;;;;;;1999.90;999.90;;;;;;;;;;5030356;28;20204;-94
2023/09/02 10:35:45;;;;;;;1999.90;999.90;;;;;;;;;;5026501;28;20200;-90
2023/09/02 10:38:15;;;;;;;1999.90;999.90;;;;;;;;;;5032354;28;20273;-92
2023/09/02 10:40:43;;;;;;;1999.90;999.90;;;;;;;;;;5012224;28;20269;-91
2023/09/02 10:43:10;;;;;;;1999.90;999.90;;;;;;;;;;5011266;28;20186;-92
2023/09/02 10:45:37;;;;;;;1999.90;999.90;;;;;;;;;;5026492;28;20184;-92
2023/09/02 10:48:03;;;;;;;1999.90;999.90;;;;;;;;;;5010929;28;20193;-92
2023/09/02 10:50:29;;;;;;;1999.90;999.90;;;;;;;;;;5008491;28;20675;-91
2023/09/02 10:52:55;;;;;;;1999.90;999.90;;;;;;;;;;5007192;28;20202;-93
2023/09/02 10:55:22;;;;;;;1999.90;999.90;;;;;;;;;;5023246;28;20184;-92
2023/09/02 10:57:52;;;;;;;1999.90;999.90;;;;;;;;;;5004904;28;20182;-92
2023/09/02 11:00:22;;;;;;;1999.90;999.90;;;;;;;;;;5005643;28;20201;-93
2023/09/02 11:02:52;;;;;;;1999.90;999.90;;;;;;;;;;5006460;28;20174;-92
2023/09/02 11:05:18;;;;;;;1999.90;999.90;;;;;;;;;;5008737;28;20181;-92
2023/09/02 11:07:44;;;;;;;1999.90;999.90;;;;;;;;;;5028747;28;20181;-92
2023/09/02 11:10:11;;;;;;;1999.90;999.90;;;;;;;;;;5011732;28;20201;-92
2023/09/02 11:13:10;;;;;;;1999.90;999.90;;;;;;;;;;5028925;28;20178;-94
2023/09/02 11:15:36;;;;;;;1999.90;999.90;;;;;;;;;;4984704;28;20200;-91
2023/09/02 11:18:21;;;;;;;1999.90;999.90;;;;;;;;;;5045914;28;20165;-93
2023/09/02 11:20:50;;;;;;;1999.90;999.90;;;;;;;;;;5047976;28;20208;-90
2023/09/02 11:23:21;;;;;;;1999.90;999.90;;;;;;;;;;5047612;28;20185;-93
2023/09/02 11:25:47;;;;;;;1999.90;999.90;;;;;;;;;;5048661;28;20173;-94
2023/09/02 11:28:19;;;;;;;1999.90;999.90;;;;;;;;;;5039741;28;20201;-96
2023/09/02 11:31:04;;;;;;;1999.90;999.90;;;;;;;;;;5028314;28;20205;-91
2023/09/02 11:33:34;;;;;;;1999.90;999.90;;;;;;;;;;5052195;28;20204;-92
2023/09/02 11:36:05;;;;;;;1999.90;999.90;;;;;;;;;;5050576;28;20244;-91
2023/09/02 11:38:32;;;;;;;1999.90;999.90;;;;;;;;;;5047216;28;20706;-94
2023/09/02 11:40:58;;;;;;;1999.90;999.90;;;;;;;;;;5046765;28;20201;-93
2023/09/02 11:43:28;;;;;;;1999.90;999.90;;;;;;;;;;5047180;28;20257;-93
2023/09/02 11:45:57;;;;;;;1999.90;999.90;;;;;;;;;;5028336;28;20272;-93
2023/09/02 11:48:27;;;;;;;1999.90;999.90;;;;;;;;;;5015817;28;20212;-94
2023/09/02 11:50:53;;;;;;;1999.90;999.90;;;;;;;;;;5047529;28;20199;-94
2023/09/02 11:53:19;;;;;;;1999.90;999.90;;;;;;;;;;5046063;28;20208;-93
2023/09/02 11:55:45;;;;;;;1999.90;999.90;;;;;;;;;;5045859;28;20188;-93
2023/09/02 11:58:14;;;;;;;1999.90;999.90;;;;;;;;;;5046816;28;20199;-92
2023/09/02 12:00:44;;;;;;;1999.90;999.90;;;;;;;;;;5045543;28;20193;-92
2023/09/02 12:03:10;;;;;;;1999.90;999.90;;;;;;;;;;5044425;28;20196;-94
2023/09/02 12:05:46;;;;;;;1999.90;999.90;;;;;;;;;;5045989;28;20263;-93
2023/09/02 12:08:12;;;;;;;1999.90;999.90;;;;;;;;;;5045837;28;20181;-93
2023/09/02 12:10:38;;;;;;;1999.90;999.90;;;;;;;;;;5061081;28;20315;-93
2023/09/02 12:13:04;;;;;;;1999.90;999.90;;;;;;;;;;5064413;28;20279;-92
2023/09/02 12:15:32;;;;;;;1999.90;999.90;;;;;;;;;;5036489;28;20269;-92
2023/09/02 12:17:59;;;;;;;1999.90;999.90;;;;;;;;;;5005728;28;20181;-93
2023/09/02 12:20:25;;;;;;;1999.90;999.90;;;;;;;;;;5022959;28;20217;-92
2023/09/02 12:22:51;;;;;;;1999.90;999.90;;;;;;;;;;5005728;28;20196;-92
2023/09/02 12:25:18;;;;;;;1999.90;999.90;;;;;;;;;;5036530;28;20221;-90
2023/09/02 12:27:44;;;;;;;1999.90;999.90;;;;;;;;;;5005624;28;20205;-92
2023/09/02 12:30:12;;;;;;;1999.90;999.90;;;;;;;;;;5025258;28;20717;-91
2023/09/02 12:32:38;;;;;;;1999.90;999.90;;;;;;;;;;5027294;28;20231;-92
2023/09/02 12:35:10;;;;;;;1999.90;999.90;;;;;;;;;;5027104;28;20177;-93
2023/09/02 12:37:36;;;;;;;1999.90;999.90;;;;;;;;;;5042408;28;20185;-89
2023/09/02 12:40:12;;;;;;;1999.90;999.90;;;;;;;;;;5045669;28;20270;-92
2023/09/02 12:42:40;;;;;;;1999.90;999.90;;;;;;;;;;5027811;28;20182;-93
2023/09/02 12:45:06;;;;;;;1999.90;999.90;;;;;;;;;;5011051;28;20203;-94
2023/09/02 12:47:33;;;;;;;1999.90;999.90;;;;;;;;;;5027059;28;20185;-93
2023/09/02 12:50:04;;;;;;;1999.90;999.90;;;;;;;;;;5024409;28;20209;-91
2023/09/02 12:52:31;;;;;;;1999.90;999.90;;;;;;;;;;5023986;28;20169;-91
2023/09/02 12:54:58;;;;;;;1999.90;999.90;;;;;;;;;;5022924;28;20213;-92
2023/09/02 12:57:25;;;;;;;1999.90;999.90;;;;;;;;;;5005291;28;20177;-93
2023/09/02 12:59:51;;;;;;;1999.90;999.90;;;;;;;;;;5005828;28;20197;-94
2023/09/02 13:02:17;;;;;;;1999.90;999.90;;;;;;;;;;5021887;28;20181;-92
2023/09/02 13:04:43;;;;;;;1999.90;999.90;;;;;;;;;;5027283;28;20275;-93
2023/09/02 13:07:09;;;;;;;1999.90;999.90;;;;;;;;;;5044358;28;20185;-93
2023/09/02 13:09:35;;;;;;;1999.90;999.90;;;;;;;;;;5052867;28;20211;-93
2023/09/02 13:12:02;;;;;;;1999.90;999.90;;;;;;;;;;5050263;28;20193;-90
2023/09/02 13:14:31;;;;;;;1999.90;999.90;;;;;;;;;;5030768;28;20197;-92
2023/09/02 13:16:58;;;;;;;1999.90;999.90;;;;;;;;;;5029355;28;20181;-92
2023/09/02 13:19:25;;;;;;;1999.90;999.90;;;;;;;;;;5038115;28;20243;-93
2023/09/02 13:21:51;;;;;;;1999.90;999.90;;;;;;;;;;5023028;28;20178;-93
2023/09/02 13:24:20;;;;;;;1999.90;999.90;;;;;;;;;;5023548;28;20182;-94
2023/09/02 13:26:47;;;;;;;1999.90;999.90;;;;;;;;;;5006715;28;20200;-92
2023/09/02 13:29:14;;;;;;;1999.90;999.90;;;;;;;;;;5023785;28;21865;-92
2023/09/02 13:31:40;;;;;;;1999.90;999.90;;;;;;;;;;5029777;28;20184;-93
2023/09/02 13:34:06;;;;;;;1999.90;999.90;;;;;;;;;;5038737;28;20212;-88
2023/09/02 13:36:33;;;;;;;1999.90;999.90;;;;;;;;;;5025915;28;20199;-87
2023/09/02 13:39:01;;;;;;;1999.90;999.90;;;;;;;;;;5044288;28;20177;-95
2023/09/02 13:41:28;;;;;;;1999.90;999.90;;;;;;;;;;5051129;28;20217;-96
2023/09/02 13:43:54;;;;;;;1999.90;999.90;;;;;;;;;;5053976;28;20181;-94
2023/09/02 13:46:20;;;;;;;1999.90;999.90;;;;;;;;;;5053650;28;20184;-94
2023/09/02 13:48:47;;;;;;;1999.90;999.90;;;;;;;;;;5054071;28;20153;-95
2023/09/02 13:51:14;;;;;;;1999.90;999.90;;;;;;;;;;5053289;28;20201;-96
2023/09/02 13:53:40;;;;;;;1999.90;999.90;;;;;;;;;;5050376;28;20212;-94
2023/09/02 13:56:07;;;;;;;1999.90;999.90;;;;;;;;;;5049587;28;20176;-94